Time;durP1;ratioP1;P1;durP2;ratioP2;P2;SDS_P1;SDS_P2;PMS_P1;PMS_P2;Temp;Humidity;BMP_temperature;BMP_pressure;BME280_temperature;BME280_humidity;BME280_pressure;Samples;Min_cycle;Max_cycle;Signal;HPM_P1;HPM_P2
2022/01/02 15:48:42;;;;;;;105.00;33.27;;;;;;;5.19;100.00;98914.59;4983590;24;20085;-58
2022/01/02 15:51:08;;;;;;;117.90;36.93;;;;;;;5.26;100.00;98917.41;4822362;29;20315;-59
2022/01/02 15:53:34;;;;;;;110.50;38.83;;;;;;;5.30;100.00;98929.31;4822963;29;20716;-58
2022/01/02 15:55:59;;;;;;;102.73;33.67;;;;;;;4.99;100.00;98930.00;4807865;29;20287;-59
2022/01/02 15:58:25;;;;;;;112.60;35.97;;;;;;;5.17;100.00;98923.72;4804503;29;20034;-59
2022/01/02 16:00:51;;;;;;;116.00;38.10;;;;;;;5.26;100.00;98931.47;4804621;29;20027;-60
2022/01/02 16:03:17;;;;;;;134.50;40.77;;;;;;;5.38;100.00;98939.91;4802364;29;20027;-59
2022/01/02 16:05:44;;;;;;;115.63;36.90;;;;;;;5.42;100.00;98941.22;4804531;29;20725;-59
2022/01/02 16:08:10;;;;;;;143.13;45.80;;;;;;;5.37;100.00;98954.13;4804128;29;20059;-59
2022/01/02 16:10:35;;;;;;;169.07;47.83;;;;;;;5.39;100.00;98962.75;4804372;29;20317;-59
2022/01/02 16:13:02;;;;;;;178.53;55.87;;;;;;;5.33;100.00;98943.03;4804357;29;20263;-60
2022/01/02 16:15:29;;;;;;;220.50;53.20;;;;;;;5.24;100.00;98940.56;4804409;29;20105;-60
2022/01/02 16:17:55;;;;;;;173.57;42.43;;;;;;;5.13;100.00;98930.31;4802493;29;20282;-60
2022/01/02 16:20:20;;;;;;;203.77;51.53;;;;;;;5.10;100.00;98924.34;4804178;29;20270;-59
2022/01/02 16:22:46;;;;;;;215.67;50.10;;;;;;;5.09;100.00;98912.09;4806405;29;20031;-59
2022/01/02 16:25:12;;;;;;;172.50;43.10;;;;;;;5.00;100.00;98891.09;4811930;29;20064;-59
2022/01/02 16:27:38;;;;;;;242.53;54.40;;;;;;;5.18;100.00;98896.22;4812745;29;20034;-59
2022/01/02 16:30:05;;;;;;;301.50;66.90;;;;;;;5.15;100.00;98901.84;4806518;29;20267;-59
2022/01/02 16:32:30;;;;;;;355.27;69.40;;;;;;;5.15;100.00;98891.25;4804282;29;20038;-60
2022/01/02 16:34:56;;;;;;;331.00;72.10;;;;;;;5.14;100.00;98889.59;4804213;29;20274;-60
2022/01/02 16:37:22;;;;;;;328.13;73.27;;;;;;;5.24;100.00;98891.06;4804104;29;20046;-60
2022/01/02 16:39:48;;;;;;;532.07;89.43;;;;;;;5.09;100.00;98900.69;4804286;29;20031;-58
2022/01/02 16:42:13;;;;;;;569.60;90.50;;;;;;;4.93;100.00;98906.84;4802767;29;20039;-59
2022/01/02 16:44:39;;;;;;;472.63;83.00;;;;;;;4.89;100.00;98916.09;4804142;29;20042;-58
2022/01/02 16:47:04;;;;;;;442.30;75.40;;;;;;;4.86;100.00;98905.00;4809649;29;20034;-59
2022/01/02 16:49:30;;;;;;;592.23;87.70;;;;;;;4.88;100.00;98900.38;4808067;29;20106;-59
2022/01/02 16:51:56;;;;;;;382.73;72.10;;;;;;;4.86;100.00;98902.34;4810490;29;20374;-60
2022/01/02 16:54:21;;;;;;;564.90;80.27;;;;;;;4.85;100.00;98916.56;4813645;29;20062;-59
2022/01/02 16:56:46;;;;;;;486.50;76.17;;;;;;;4.77;100.00;98911.28;4795303;29;20027;-60
2022/01/02 16:59:14;;;;;;;453.77;72.60;;;;;;;4.77;100.00;98912.13;4793261;29;20041;-60
2022/01/02 17:01:40;;;;;;;303.33;66.60;;;;;;;4.85;100.00;98912.13;4803833;29;20066;-60
2022/01/02 17:04:05;;;;;;;232.90;47.83;;;;;;;4.90;100.00;98924.88;4803875;29;20451;-60
2022/01/02 17:06:31;;;;;;;154.97;43.07;;;;;;;4.88;100.00;98910.97;4813399;29;20492;-60
2022/01/02 17:08:57;;;;;;;155.77;44.20;;;;;;;4.94;100.00;98899.72;4817454;29;20113;-59
2022/01/02 17:11:24;;;;;;;149.03;43.00;;;;;;;4.98;100.00;98890.44;4821758;29;20038;-61
2022/01/02 17:13:52;;;;;;;145.87;42.37;;;;;;;5.01;100.00;98893.59;4821493;29;20281;-59
2022/01/02 17:16:21;;;;;;;167.70;43.70;;;;;;;4.95;100.00;98896.91;4816719;29;20266;-59
2022/01/02 17:18:48;;;;;;;136.63;41.53;;;;;;;4.89;100.00;98889.63;4808957;29;20271;-59
2022/01/02 17:21:14;;;;;;;114.83;37.53;;;;;;;4.81;100.00;98894.94;4812319;29;20265;-59
2022/01/02 17:23:40;;;;;;;123.40;41.40;;;;;;;4.73;100.00;98893.09;4812995;29;20709;-59
2022/01/02 17:26:06;;;;;;;99.70;35.83;;;;;;;4.75;100.00;98884.97;4811284;29;20042;-60
2022/01/02 17:28:31;;;;;;;106.10;36.67;;;;;;;4.65;100.00;98884.31;4812428;29;20029;-60
2022/01/02 17:30:57;;;;;;;101.77;35.57;;;;;;;4.62;100.00;98884.66;4820649;29;20113;-59
2022/01/02 17:33:22;;;;;;;98.67;35.70;;;;;;;4.64;100.00;98880.03;4824900;29;20030;-59
2022/01/02 17:35:48;;;;;;;90.47;33.40;;;;;;;4.69;100.00;98885.66;4824995;29;20034;-61
2022/01/02 17:38:16;;;;;;;79.10;31.67;;;;;;;4.61;100.00;98870.63;4824822;29;20064;-61
2022/01/02 17:40:44;;;;;;;78.63;29.47;;;;;;;4.51;100.00;98861.97;4827163;29;20038;-60
2022/01/02 17:43:10;;;;;;;69.37;28.60;;;;;;;4.21;100.00;98863.44;4814562;29;20286;-60
2022/01/02 17:45:38;;;;;;;68.40;28.37;;;;;;;4.16;100.00;98865.75;4824672;29;20270;-60
2022/01/02 17:48:05;;;;;;;55.77;24.27;;;;;;;4.05;100.00;98860.75;4824218;29;20282;-59
2022/01/02 17:50:31;;;;;;;77.80;30.27;;;;;;;4.00;100.00;98855.16;4824715;29;20285;-59
2022/01/02 17:52:56;;;;;;;91.17;32.77;;;;;;;3.84;100.00;98863.03;4824630;29;20266;-60
2022/01/02 17:55:22;;;;;;;76.87;32.30;;;;;;;3.64;100.00;98842.16;4824053;29;20101;-60
2022/01/02 17:57:48;;;;;;;85.60;31.73;;;;;;;3.56;100.00;98844.78;4824512;29;20030;-60
2022/01/02 18:00:15;;;;;;;158.03;42.47;;;;;;;3.64;100.00;98844.78;4824669;29;20041;-60
2022/01/02 18:02:41;;;;;;;118.10;37.97;;;;;;;3.71;100.00;98847.59;4824639;29;20652;-60
2022/01/02 18:05:08;;;;;;;140.70;38.80;;;;;;;3.84;100.00;98841.88;4824577;29;20300;-61
2022/01/02 18:07:34;;;;;;;134.17;38.93;;;;;;;3.90;100.00;98841.25;4824224;29;20724;-62
2022/01/02 18:10:07;;;;;;;134.17;40.60;;;;;;;3.94;100.00;98839.91;4824437;29;20644;-61
2022/01/02 18:12:36;;;;;;;125.37;38.83;;;;;;;3.88;100.00;98846.69;4823454;29;20334;-60
2022/01/02 18:15:03;;;;;;;125.90;38.93;;;;;;;3.98;100.00;98851.84;4824388;29;20262;-61
2022/01/02 18:17:29;;;;;;;179.10;44.90;;;;;;;3.99;100.00;98846.38;4824346;29;20285;-60
2022/01/02 18:19:55;;;;;;;117.63;40.50;;;;;;;4.05;100.00;98852.81;4823201;29;20270;-62
2022/01/02 18:22:21;;;;;;;110.27;37.43;;;;;;;4.09;100.00;98840.13;4824199;29;20372;-61
2022/01/02 18:24:52;;;;;;;88.43;32.43;;;;;;;4.08;100.00;98841.94;4824198;29;20429;-62
2022/01/02 18:27:17;;;;;;;87.37;32.03;;;;;;;3.97;100.00;98842.25;4824210;29;20493;-62
2022/01/02 18:29:43;;;;;;;147.90;36.43;;;;;;;3.97;100.00;98824.56;4824319;29;20422;-61
2022/01/02 18:32:08;;;;;;;209.77;45.30;;;;;;;3.92;100.00;98821.56;4824270;29;20038;-61
2022/01/02 18:34:34;;;;;;;678.27;76.83;;;;;;;3.77;100.00;98822.38;4824043;29;20094;-63
2022/01/02 18:36:59;;;;;;;629.63;74.53;;;;;;;3.75;100.00;98816.41;4824025;29;20416;-62
2022/01/02 18:39:25;;;;;;;492.87;65.43;;;;;;;3.68;100.00;98815.41;4824051;29;20508;-62
2022/01/02 18:41:54;;;;;;;304.40;51.60;;;;;;;3.68;100.00;98815.41;4823781;29;20480;-62
2022/01/02 18:44:20;;;;;;;164.27;40.77;;;;;;;3.67;100.00;98827.81;4823880;29;20038;-61
2022/01/02 18:46:45;;;;;;;106.43;33.87;;;;;;;3.58;100.00;98823.44;4807619;29;20872;-61
2022/01/02 18:49:11;;;;;;;160.73;40.17;;;;;;;3.59;100.00;98812.72;4823775;29;20058;-62
2022/01/02 18:51:36;;;;;;;165.53;41.23;;;;;;;3.57;100.00;98816.53;4837918;29;20041;-61
2022/01/02 18:54:02;;;;;;;228.63;48.03;;;;;;;3.66;100.00;98812.09;4823677;29;20039;-62
2022/01/02 18:56:28;;;;;;;261.23;50.83;;;;;;;3.56;100.00;98793.75;4822510;29;20065;-63
2022/01/02 18:58:54;;;;;;;227.83;52.13;;;;;;;3.69;100.00;98801.22;4823394;29;20396;-62
2022/01/02 19:01:20;;;;;;;245.97;52.63;;;;;;;3.69;100.00;98790.66;4805672;29;20045;-61
2022/01/02 19:03:47;;;;;;;259.47;50.63;;;;;;;3.72;100.00;98791.13;4804187;29;20075;-60
2022/01/02 19:06:13;;;;;;;376.60;56.23;;;;;;;3.62;100.00;98793.91;4805399;29;20645;-64
2022/01/02 19:08:39;;;;;;;265.30;51.77;;;;;;;3.70;100.00;98789.63;4805245;29;20279;-62
2022/01/02 19:11:05;;;;;;;180.97;45.83;;;;;;;3.83;100.00;98788.19;4823208;29;20364;-62
2022/01/02 19:13:32;;;;;;;269.10;48.60;;;;;;;3.67;100.00;98787.34;4823386;29;20348;-62
2022/01/02 19:16:00;;;;;;;287.37;49.70;;;;;;;3.75;100.00;98784.72;4822170;29;20302;-63
2022/01/02 19:18:28;;;;;;;266.23;49.70;;;;;;;3.83;100.00;98779.44;4820218;29;20289;-62
2022/01/02 19:20:54;;;;;;;292.80;51.40;;;;;;;3.87;100.00;98791.34;4823286;29;20281;-62
2022/01/02 19:23:20;;;;;;;291.40;53.30;;;;;;;3.92;100.00;98786.41;4823126;29;20779;-62
2022/01/02 19:25:46;;;;;;;284.77;49.93;;;;;;;4.04;100.00;98781.63;4821671;29;20780;-62
2022/01/02 19:28:12;;;;;;;379.07;56.43;;;;;;;4.06;100.00;98784.91;4823171;29;20327;-62
2022/01/02 19:30:37;;;;;;;303.70;48.43;;;;;;;3.97;100.00;98781.44;4816466;29;20114;-62
2022/01/02 19:33:05;;;;;;;366.20;54.43;;;;;;;3.96;100.00;98777.13;4811660;29;20038;-62
2022/01/02 19:35:32;;;;;;;431.07;58.23;;;;;;;3.96;100.00;98775.31;4808349;29;20716;-62
2022/01/02 19:37:58;;;;;;;425.23;58.30;;;;;;;3.90;100.00;98783.09;4813755;29;20286;-62
2022/01/02 19:40:24;;;;;;;419.80;61.73;;;;;;;3.82;100.00;98786.53;4804597;29;20763;-62
2022/01/02 19:42:49;;;;;;;520.73;66.63;;;;;;;3.98;100.00;98785.75;4809407;29;20514;-61
2022/01/02 19:45:15;;;;;;;363.17;55.43;;;;;;;4.02;100.00;98778.31;4815486;29;20030;-63
2022/01/02 19:47:41;;;;;;;423.50;61.03;;;;;;;3.89;100.00;98794.66;4802992;29;20063;-62
2022/01/02 19:50:09;;;;;;;364.80;54.50;;;;;;;3.75;100.00;98774.97;4804594;29;20508;-61
2022/01/02 19:52:37;;;;;;;352.83;57.07;;;;;;;3.64;100.00;98783.19;4804486;29;20287;-62
2022/01/02 19:55:08;;;;;;;376.63;55.37;;;;;;;3.62;100.00;98775.44;4804163;29;20633;-62
2022/01/02 19:57:35;;;;;;;302.67;51.97;;;;;;;3.68;100.00;98773.97;4803211;29;20282;-62
2022/01/02 20:00:07;;;;;;;341.83;55.23;;;;;;;3.54;100.00;98780.69;4803254;29;20375;-62
2022/01/02 20:02:34;;;;;;;325.90;58.43;;;;;;;3.38;100.00;98785.91;4804470;29;20297;-62
2022/01/02 20:05:00;;;;;;;301.47;55.67;;;;;;;3.46;100.00;98780.66;4803439;29;20298;-62
2022/01/02 20:07:26;;;;;;;430.40;62.03;;;;;;;3.36;100.00;98777.31;4804224;29;20283;-62
2022/01/02 20:09:53;;;;;;;379.93;60.30;;;;;;;3.34;100.00;98774.03;4804145;29;20035;-62
2022/01/02 20:12:19;;;;;;;297.50;52.97;;;;;;;3.35;100.00;98780.94;4808778;29;20309;-61
2022/01/02 20:14:47;;;;;;;434.03;62.03;;;;;;;3.36;100.00;98789.69;4816873;29;20728;-62
2022/01/02 20:17:13;;;;;;;621.23;69.10;;;;;;;3.30;100.00;98783.25;4804286;29;20274;-61
2022/01/02 20:19:39;;;;;;;571.20;69.93;;;;;;;3.46;100.00;98788.56;4804297;29;20283;-62
2022/01/02 20:22:05;;;;;;;799.13;87.00;;;;;;;3.62;100.00;98796.56;4803066;29;20037;-61
2022/01/02 20:24:32;;;;;;;646.13;67.90;;;;;;;3.60;100.00;98792.41;4804163;29;20923;-62
2022/01/02 20:26:58;;;;;;;517.67;59.37;;;;;;;3.51;100.00;98783.66;4813749;29;20760;-61
2022/01/02 20:29:24;;;;;;;462.20;55.97;;;;;;;3.51;100.00;98775.72;4802988;29;20339;-61
2022/01/02 20:31:50;;;;;;;465.17;54.60;;;;;;;3.32;100.00;98780.44;4804253;29;20051;-61
2022/01/02 20:34:15;;;;;;;435.73;49.53;;;;;;;3.37;100.00;98770.22;4804378;29;20262;-61
2022/01/02 20:36:41;;;;;;;537.63;67.73;;;;;;;3.26;100.00;98773.97;4804213;29;20035;-60
2022/01/02 20:39:10;;;;;;;459.07;54.60;;;;;;;3.41;100.00;98767.09;4804213;29;20035;-61
2022/01/02 20:41:36;;;;;;;343.30;50.03;;;;;;;3.37;100.00;98770.22;4803410;29;20037;-62
2022/01/02 20:44:02;;;;;;;444.83;62.23;;;;;;;3.26;100.00;98768.69;4804063;29;20340;-63
2022/01/02 20:46:27;;;;;;;331.77;56.63;;;;;;;3.41;100.00;98764.47;4804889;29;20753;-61
2022/01/02 20:48:53;;;;;;;432.63;61.23;;;;;;;3.33;100.00;98772.38;4811951;29;20446;-62
2022/01/02 20:51:19;;;;;;;502.87;63.13;;;;;;;3.45;100.00;98767.63;4812712;29;20493;-61
2022/01/02 20:53:44;;;;;;;524.50;64.20;;;;;;;3.41;100.00;98751.25;4810662;29;20050;-61
2022/01/02 20:56:11;;;;;;;430.33;56.23;;;;;;;3.52;100.00;98743.03;4811549;29;20430;-61
2022/01/02 20:58:37;;;;;;;470.17;59.10;;;;;;;3.50;100.00;98739.72;4811387;29;20055;-62
2022/01/02 21:01:03;;;;;;;572.37;67.30;;;;;;;3.51;100.00;98730.00;4813056;29;20535;-61
2022/01/02 21:03:29;;;;;;;565.43;64.80;;;;;;;3.40;100.00;98743.50;4803747;29;20287;-61
2022/01/02 21:05:54;;;;;;;646.53;68.50;;;;;;;3.44;100.00;98750.13;4819564;29;20026;-61
2022/01/02 21:08:20;;;;;;;614.60;64.23;;;;;;;3.46;100.00;98753.44;4825492;29;20062;-63
2022/01/02 21:10:50;;;;;;;478.10;56.47;;;;;;;3.52;100.00;98766.81;4825242;29;20064;-62
2022/01/02 21:13:17;;;;;;;537.83;64.60;;;;;;;3.54;100.00;98764.00;4825325;29;20269;-61
2022/01/02 21:15:44;;;;;;;421.73;52.27;;;;;;;3.40;100.00;98760.16;4823975;29;20693;-61
2022/01/02 21:18:10;;;;;;;409.50;50.77;;;;;;;3.35;100.00;98762.44;4824100;29;20350;-61
2022/01/02 21:20:37;;;;;;;658.13;69.40;;;;;;;3.35;100.00;98758.97;4825228;29;20280;-61
2022/01/02 21:23:02;;;;;;;527.70;57.33;;;;;;;3.35;100.00;98753.69;4825237;29;20726;-61
2022/01/02 21:25:28;;;;;;;516.17;58.23;;;;;;;3.27;100.00;98751.88;4825218;29;20278;-61
2022/01/02 21:27:55;;;;;;;524.47;53.63;;;;;;;3.44;100.00;98750.94;4825170;29;20034;-61
2022/01/02 21:30:22;;;;;;;296.27;41.33;;;;;;;3.47;100.00;98757.69;4825153;29;20098;-61
2022/01/02 21:32:48;;;;;;;273.03;37.57;;;;;;;3.04;100.00;98754.25;4825199;29;20277;-61
2022/01/02 21:35:17;;;;;;;391.27;43.90;;;;;;;3.23;100.00;98754.00;4823995;29;20274;-61
2022/01/02 21:37:44;;;;;;;343.67;40.93;;;;;;;3.32;100.00;98762.78;4825147;29;20351;-61
2022/01/02 21:40:11;;;;;;;364.20;46.80;;;;;;;3.21;100.00;98756.00;4823916;29;20627;-62
2022/01/02 21:42:36;;;;;;;308.10;40.33;;;;;;;3.33;100.00;98745.13;4824999;29;20285;-61
2022/01/02 21:45:03;;;;;;;373.70;44.73;;;;;;;3.21;100.00;98753.34;4824907;29;20308;-62
2022/01/02 21:47:28;;;;;;;289.43;40.50;;;;;;;3.30;100.00;98745.44;4824634;29;20070;-62
2022/01/02 21:49:54;;;;;;;257.00;35.63;;;;;;;3.25;100.00;98741.47;4824731;29;20285;-61
2022/01/02 21:52:20;;;;;;;183.80;33.17;;;;;;;3.27;100.00;98739.50;4824742;29;20034;-62
2022/01/02 21:54:45;;;;;;;340.97;41.83;;;;;;;3.17;100.00;98745.88;4824612;29;20044;-62
2022/01/02 21:57:11;;;;;;;445.83;50.23;;;;;;;3.11;100.00;98743.91;4824706;29;20353;-62
2022/01/02 21:59:38;;;;;;;377.77;44.77;;;;;;;3.15;100.00;98746.03;4824540;29;20476;-62
2022/01/02 22:02:04;;;;;;;309.27;38.83;;;;;;;2.97;100.00;98749.78;4823326;29;20040;-61
2022/01/02 22:04:33;;;;;;;399.53;44.73;;;;;;;3.25;100.00;98745.91;4824529;29;20282;-61
2022/01/02 22:06:59;;;;;;;403.73;46.67;;;;;;;3.20;100.00;98750.84;4824378;29;20129;-61
2022/01/02 22:09:25;;;;;;;327.80;41.23;;;;;;;3.21;100.00;98755.16;4824503;29;20286;-61
2022/01/02 22:11:52;;;;;;;309.80;38.87;;;;;;;3.30;100.00;98737.53;4824425;29;20288;-61
2022/01/02 22:14:18;;;;;;;268.23;35.83;;;;;;;3.30;100.00;98741.00;4824509;29;20477;-62
2022/01/02 22:16:44;;;;;;;313.37;42.90;;;;;;;3.19;100.00;98742.13;4824045;29;20372;-62
2022/01/02 22:19:11;;;;;;;354.43;42.23;;;;;;;3.29;100.00;98747.25;4823925;29;20309;-62
2022/01/02 22:21:38;;;;;;;390.43;45.33;;;;;;;3.36;100.00;98742.97;4823105;29;20282;-62
2022/01/02 22:24:09;;;;;;;299.73;41.60;;;;;;;3.27;100.00;98741.31;4824220;29;20297;-61
2022/01/02 22:26:39;;;;;;;286.70;39.97;;;;;;;3.34;100.00;98744.16;4824211;29;20277;-61
2022/01/02 22:29:06;;;;;;;224.97;36.60;;;;;;;3.20;100.00;98751.69;4824117;29;20270;-61
2022/01/02 22:31:36;;;;;;;203.63;34.27;;;;;;;3.12;100.00;98759.56;4823976;29;20311;-62
2022/01/02 22:34:07;;;;;;;194.27;35.70;;;;;;;3.11;100.00;98760.56;4823008;29;20270;-61
2022/01/02 22:36:33;;;;;;;145.57;31.40;;;;;;;3.13;100.00;98768.31;4822900;29;20278;-61
2022/01/02 22:38:59;;;;;;;144.93;34.47;;;;;;;3.21;100.00;98763.09;4824133;29;20284;-61
2022/01/02 22:41:25;;;;;;;145.17;33.23;;;;;;;3.13;100.00;98774.41;4824096;29;20656;-61
2022/01/02 22:43:52;;;;;;;163.47;32.50;;;;;;;3.18;100.00;98776.59;4823841;29;20048;-62
2022/01/02 22:46:22;;;;;;;152.10;30.37;;;;;;;3.22;100.00;98776.13;4823909;29;20313;-61
2022/01/02 22:48:49;;;;;;;245.00;40.30;;;;;;;3.19;100.00;98784.34;4823722;29;20345;-61
2022/01/02 22:51:15;;;;;;;184.17;35.80;;;;;;;3.09;100.00;98780.19;4823910;29;20269;-62
2022/01/02 22:53:41;;;;;;;192.20;36.97;;;;;;;3.17;100.00;98774.94;4823831;29;20326;-61
2022/01/02 22:56:12;;;;;;;124.03;30.23;;;;;;;2.98;100.00;98785.75;4823941;29;20361;-61
2022/01/02 22:58:40;;;;;;;142.47;32.53;;;;;;;3.22;100.00;98770.84;4823878;29;20329;-62
2022/01/02 23:01:09;;;;;;;163.60;33.00;;;;;;;3.05;100.00;98786.75;4823741;29;20282;-61
2022/01/02 23:03:40;;;;;;;185.67;34.60;;;;;;;3.12;100.00;98774.56;4823664;29;20293;-62
2022/01/02 23:06:08;;;;;;;235.63;41.10;;;;;;;3.23;100.00;98761.91;4823592;29;20278;-61
2022/01/02 23:08:36;;;;;;;460.87;56.00;;;;;;;3.24;100.00;98750.38;4823591;29;20282;-61
2022/01/02 23:11:07;;;;;;;291.97;46.03;;;;;;;3.21;100.00;98758.63;4823559;29;20285;-61
2022/01/02 23:13:39;;;;;;;289.20;45.03;;;;;;;3.17;100.00;98759.91;4823545;29;20357;-61
2022/01/02 23:16:08;;;;;;;557.00;62.80;;;;;;;3.15;100.00;98750.50;4823742;29;20301;-61
2022/01/02 23:18:37;;;;;;;415.60;54.07;;;;;;;2.99;100.00;98735.44;4823360;29;20274;-61
2022/01/02 23:21:04;;;;;;;300.40;44.93;;;;;;;2.98;100.00;98727.66;4823448;29;20278;-61
2022/01/02 23:23:30;;;;;;;539.53;62.80;;;;;;;3.03;100.00;98722.72;4823279;29;20767;-61
2022/01/02 23:25:57;;;;;;;487.03;56.87;;;;;;;2.97;100.00;98721.56;4822225;29;20289;-61
2022/01/02 23:28:23;;;;;;;389.70;57.40;;;;;;;2.90;100.00;98731.09;4823068;29;20041;-61
2022/01/02 23:30:49;;;;;;;509.10;58.83;;;;;;;2.89;100.00;98740.81;4822561;29;20274;-61
2022/01/02 23:33:14;;;;;;;335.40;48.93;;;;;;;2.96;100.00;98740.19;4823557;29;20411;-61
2022/01/02 23:35:43;;;;;;;361.27;49.13;;;;;;;2.90;100.00;98754.84;4823166;29;20121;-61
2022/01/02 23:38:10;;;;;;;602.60;62.87;;;;;;;2.87;100.00;98745.44;4823205;29;20109;-61
2022/01/02 23:40:36;;;;;;;386.53;50.37;;;;;;;2.99;100.00;98738.06;4809263;29;20281;-61
2022/01/02 23:43:09;;;;;;;541.13;56.40;;;;;;;2.99;100.00;98735.44;4804073;29;20297;-62
2022/01/02 23:45:41;;;;;;;380.13;48.27;;;;;;;3.10;100.00;98731.69;4804106;29;20271;-61
2022/01/02 23:48:10;;;;;;;393.87;52.67;;;;;;;3.00;100.00;98747.63;4804687;29;20768;-61
2022/01/02 23:50:37;;;;;;;396.23;49.07;;;;;;;2.59;100.00;98743.94;4804618;29;20286;-61
2022/01/02 23:53:10;;;;;;;530.67;56.13;;;;;;;2.82;100.00;98742.44;4804959;29;20273;-62
2022/01/02 23:55:37;;;;;;;287.25;42.97;;;;;;;2.85;100.00;98742.13;4804838;29;20263;-61
2022/01/02 23:58:15;;;;;;;277.53;41.07;;;;;;;2.81;100.00;98747.88;4804633;29;20440;-61
